Senhora Da Saude — CUBU9 — position and weather

sailwx.info

Track history (hours):
 
Tides and Currents Weather Stations Pressure Air Temp Water Temp Dewpoint Dewpoint Depression Visibility Wind Speed Wind Dir Waves Ship Positions

Senhora Da Saude

Last reported at 2017-Nov-18 13:18 UTC. Time now 2017-Nov-18 23:38 UTC.
Position N 39°12' W 009°24'.

Length 18 m.

Type: Fishing. MMSI: 204278000.

Date/timePositionNaut miles runAvg speedWind from/ knotsBaromVisibWave heightAir tempDewpointWater temp
2017-Nov-18 13:18N 39°12' W 009°24'1 0.6
2017-Nov-18 11:20N 39°11' W 009°23'0 0.8
2017-Nov-18 11:00N 39°11' W 009°23'0 0.9
2017-Nov-18 10:30N 39°12' W 009°23'1 0.5
2017-Nov-18 08:53N 39°11' W 009°23'0 0.8
2017-Nov-18 08:23N 39°11' W 009°22'1 1.2
2017-Nov-18 07:57N 39°12' W 009°22'1 2.5
2017-Nov-18 07:30N 39°13' W 009°23'1 1.3
2017-Nov-18 07:00N 39°14' W 009°23'2 0.1
2017-Nov-17 15:43N 39°16' W 009°23'2 7.7
2017-Nov-17 15:30N 39°14' W 009°23'2 4.1
2017-Nov-17 15:00N 39°12' W 009°23'1 0.5
2017-Nov-17 13:39N 39°11' W 009°23'1 0.0
2017-Nov-16 09:54N 39°12' W 009°24'2 3.5
2017-Nov-16 09:21N 39°13' W 009°26'1 1.0
2017-Nov-16 08:48N 39°13' W 009°26'1 2.1
2017-Nov-16 08:30N 39°13' W 009°27'0 0.5
2017-Nov-16 08:00N 39°13' W 009°27'0 0.4
2017-Nov-16 07:30N 39°13' W 009°27'0 0.4
2017-Nov-16 07:00N 39°13' W 009°27'0 0.4
2017-Nov-16 06:31N 39°13' W 009°27'0 0.3
2017-Nov-16 06:00N 39°13' W 009°26'0 0.2
2017-Nov-16 05:30N 39°13' W 009°26'0 0.3
2017-Nov-16 05:00N 39°14' W 009°26'1 2.4
2017-Nov-16 04:30N 39°12' W 009°25'1 2.3
2017-Nov-16 04:00N 39°12' W 009°24'1 2.2
2017-Nov-16 03:30N 39°12' W 009°23'2 4.2
2017-Nov-16 03:00N 39°14' W 009°23'4 7.2
2017-Nov-16 02:30N 39°18' W 009°23'4 1.0
2017-Nov-15 22:41N 39°21' W 009°22'0 0.0
2017-Nov-15 22:29N 39°21' W 009°22'0 0.0
2017-Nov-15 21:59N 39°21' W 009°22'  
Track history (hours):
 
Tides and Currents Weather Stations Pressure Air Temp Water Temp Dewpoint Dewpoint Depression Visibility Wind Speed Wind Dir Waves Ship Positions

Senhora Da Saude

Last reported at 2017-Nov-18 13:18 UTC. Time now 2017-Nov-18 23:38 UTC.
Position N 39°12' W 009°24'.

Length 18 m.

Type: Fishing. MMSI: 204278000.

Date/timePositionNaut miles runAvg speedWind from/ knotsBaromVisibWave heightAir tempDewpointWater temp
2017-Nov-18 13:18N 39°12' W 009°24'1 0.6
2017-Nov-18 11:20N 39°11' W 009°23'0 0.8
2017-Nov-18 11:00N 39°11' W 009°23'0 0.9
2017-Nov-18 10:30N 39°12' W 009°23'1 0.5
2017-Nov-18 08:53N 39°11' W 009°23'0 0.8
2017-Nov-18 08:23N 39°11' W 009°22'1 1.2
2017-Nov-18 07:57N 39°12' W 009°22'1 2.5
2017-Nov-18 07:30N 39°13' W 009°23'1 1.3
2017-Nov-18 07:00N 39°14' W 009°23'2 0.1
2017-Nov-17 15:43N 39°16' W 009°23'2 7.7
2017-Nov-17 15:30N 39°14' W 009°23'2 4.1
2017-Nov-17 15:00N 39°12' W 009°23'1 0.5
2017-Nov-17 13:39N 39°11' W 009°23'1 0.0
2017-Nov-16 09:54N 39°12' W 009°24'2 3.5
2017-Nov-16 09:21N 39°13' W 009°26'1 1.0
2017-Nov-16 08:48N 39°13' W 009°26'1 2.1
2017-Nov-16 08:30N 39°13' W 009°27'0 0.5
2017-Nov-16 08:00N 39°13' W 009°27'0 0.4
2017-Nov-16 07:30N 39°13' W 009°27'0 0.4
2017-Nov-16 07:00N 39°13' W 009°27'0 0.4
2017-Nov-16 06:31N 39°13' W 009°27'0 0.3
2017-Nov-16 06:00N 39°13' W 009°26'0 0.2
2017-Nov-16 05:30N 39°13' W 009°26'0 0.3
2017-Nov-16 05:00N 39°14' W 009°26'1 2.4
2017-Nov-16 04:30N 39°12' W 009°25'1 2.3
2017-Nov-16 04:00N 39°12' W 009°24'1 2.2
2017-Nov-16 03:30N 39°12' W 009°23'2 4.2
2017-Nov-16 03:00N 39°14' W 009°23'4 7.2
2017-Nov-16 02:30N 39°18' W 009°23'4 1.0
2017-Nov-15 22:41N 39°21' W 009°22'0 0.0
2017-Nov-15 22:29N 39°21' W 009°22'0 0.0
2017-Nov-15 21:59N 39°21' W 009°22'  

Dump ship's entire track history